createdAt,value
2022-07-29T00:04:14.413Z,3.22
2022-07-29T00:09:50.439Z,3.08
2022-07-29T00:15:13.293Z,3.90
2022-07-29T00:20:35.141Z,2.95
2022-07-29T00:25:56.978Z,2.95
2022-07-29T00:31:18.888Z,3.00
2022-07-29T00:36:40.715Z,2.78
2022-07-29T00:42:02.562Z,2.60
2022-07-29T00:47:24.415Z,3.10
2022-07-29T00:52:46.244Z,2.70
2022-07-29T00:58:08.082Z,3.08
2022-07-29T01:03:29.954Z,3.10
2022-07-29T01:08:51.788Z,3.60
2022-07-29T01:14:13.966Z,3.63
2022-07-29T01:19:36.037Z,3.08
2022-07-29T01:24:57.866Z,2.85
2022-07-29T01:30:19.701Z,2.88
2022-07-29T01:35:45.228Z,2.72
2022-07-29T01:41:07.073Z,2.97
2022-07-29T01:46:28.956Z,3.90
2022-07-29T01:51:50.808Z,2.70
2022-07-29T01:57:12.658Z,2.97
2022-07-29T02:02:34.519Z,3.00
2022-07-29T02:07:56.358Z,3.13
2022-07-29T02:13:18.191Z,3.30
2022-07-29T02:18:40.019Z,2.92
2022-07-29T02:24:01.886Z,3.28
2022-07-29T02:29:23.719Z,3.38
2022-07-29T02:34:45.557Z,3.50
2022-07-29T02:40:07.407Z,3.15
2022-07-29T02:45:29.251Z,3.25
2022-07-29T02:50:51.097Z,3.30
2022-07-29T02:56:12.933Z,3.28
2022-07-29T03:01:34.830Z,3.55
2022-07-29T03:06:56.696Z,3.80
2022-07-29T03:12:18.522Z,3.35
2022-07-29T03:17:40.372Z,3.38
2022-07-29T03:23:02.222Z,3.33
2022-07-29T03:28:24.071Z,3.70
2022-07-29T03:33:48.790Z,3.70
2022-07-29T03:39:10.624Z,3.50
2022-07-29T03:44:32.467Z,3.20
2022-07-29T03:49:54.310Z,3.70
2022-07-29T03:55:16.180Z,3.80
2022-07-29T04:00:38.021Z,3.33
2022-07-29T04:05:59.857Z,3.38
2022-07-29T04:11:21.700Z,3.70
2022-07-29T04:16:43.538Z,3.60
2022-07-29T04:22:05.391Z,3.40
2022-07-29T04:27:27.252Z,3.53
2022-07-29T04:32:49.086Z,4.13
2022-07-29T04:38:15.915Z,3.35
2022-07-29T04:43:39.120Z,3.53
2022-07-29T04:49:01.391Z,3.30
2022-07-29T04:54:23.288Z,3.28
2022-07-29T04:59:45.117Z,3.60
2022-07-29T05:05:06.957Z,2.83
2022-07-29T05:10:28.799Z,3.00
2022-07-29T05:15:50.684Z,2.50
2022-07-29T05:21:12.578Z,2.80
2022-07-29T05:26:34.429Z,2.80
2022-07-29T05:31:56.420Z,2.85
2022-07-29T05:37:18.284Z,2.83
2022-07-29T05:42:40.137Z,2.78
2022-07-29T05:48:01.986Z,2.90
2022-07-29T05:53:23.821Z,2.70
2022-07-29T05:58:45.662Z,2.30
2022-07-29T06:04:07.564Z,2.70
2022-07-29T06:09:29.414Z,2.60
2022-07-29T06:14:54.219Z,2.65
2022-07-29T06:20:16.221Z,2.60
2022-07-29T06:25:38.064Z,3.00
2022-07-29T06:30:59.955Z,2.22
2022-07-29T06:36:22.930Z,2.65
2022-07-29T06:41:46.911Z,2.58
2022-07-29T06:47:08.731Z,2.22
2022-07-29T06:52:30.554Z,2.50
2022-07-29T06:57:53.138Z,2.30
2022-07-29T07:03:15.041Z,2.58
2022-07-29T07:08:36.876Z,2.55
2022-07-29T07:14:02.921Z,2.38
2022-07-29T07:19:25.905Z,2.35
2022-07-29T07:24:47.747Z,2.47
2022-07-29T07:30:09.564Z,2.20
2022-07-29T07:35:31.392Z,2.20
2022-07-29T07:40:53.296Z,2.50
2022-07-29T07:46:15.238Z,2.30
2022-07-29T07:51:37.094Z,2.20
2022-07-29T07:56:58.946Z,2.20
2022-07-29T08:02:20.959Z,2.60
2022-07-29T08:07:42.897Z,2.20
2022-07-29T08:13:04.732Z,2.40
2022-07-29T08:18:26.601Z,1.92
2022-07-29T08:23:51.679Z,2.10
2022-07-29T08:29:19.930Z,2.08
2022-07-29T08:34:42.117Z,2.30
2022-07-29T08:40:03.969Z,2.30
2022-07-29T08:45:25.889Z,1.85
2022-07-29T08:50:47.782Z,2.30
2022-07-29T08:56:10.912Z,3.30
2022-07-29T09:01:36.048Z,2.40
2022-07-29T09:07:04.141Z,2.35
2022-07-29T09:12:29.420Z,2.15
2022-07-29T09:17:51.855Z,2.22
2022-07-29T09:23:13.690Z,2.28
2022-07-29T09:28:46.239Z,2.30
2022-07-29T09:34:08.102Z,2.25
2022-07-29T09:39:29.952Z,2.10
2022-07-29T09:44:51.796Z,2.30
2022-07-29T09:50:13.639Z,2.50
2022-07-29T09:55:35.498Z,2.13
2022-07-29T10:00:57.870Z,2.17
2022-07-29T10:06:19.906Z,2.10
2022-07-29T10:11:49.825Z,2.20
2022-07-29T10:17:11.823Z,2.10
2022-07-29T10:22:52.479Z,2.40
2022-07-29T10:28:16.724Z,2.42
2022-07-29T10:33:38.857Z,2.38
2022-07-29T10:39:00.736Z,2.60
2022-07-29T10:44:25.176Z,2.60
2022-07-29T10:49:47.017Z,2.47
2022-07-29T10:55:10.061Z,2.25
2022-07-29T11:00:31.971Z,2.20
2022-07-29T11:05:53.810Z,2.28
2022-07-29T11:11:17.462Z,2.42
2022-07-29T11:16:39.370Z,2.40
2022-07-29T11:22:01.320Z,2.55
2022-07-29T11:27:23.311Z,2.47
2022-07-29T11:32:50.463Z,2.58
2022-07-29T11:38:12.325Z,2.35
2022-07-29T11:43:34.342Z,2.72
2022-07-29T11:48:56.847Z,2.42
2022-07-29T11:54:18.995Z,2.75
2022-07-29T11:59:49.488Z,2.55
2022-07-29T12:05:12.587Z,2.88
2022-07-29T12:10:34.440Z,2.80
2022-07-29T12:15:56.399Z,2.65
2022-07-29T12:21:25.715Z,2.50
2022-07-29T12:26:47.753Z,2.42
2022-07-29T12:32:14.964Z,2.40
2022-07-29T12:37:42.595Z,2.47
2022-07-29T12:43:04.642Z,2.75
2022-07-29T12:48:26.468Z,2.70
2022-07-29T12:53:48.309Z,3.20
2022-07-29T12:59:10.143Z,2.58
2022-07-29T13:04:31.975Z,2.80
2022-07-29T13:09:53.801Z,2.72
2022-07-29T13:15:15.656Z,2.50
2022-07-29T13:20:37.636Z,2.80
2022-07-29T13:25:59.480Z,2.67
2022-07-29T13:31:21.309Z,3.00
2022-07-29T13:36:43.128Z,3.08
2022-07-29T13:42:07.926Z,3.03
2022-07-29T13:47:33.418Z,2.80
2022-07-29T13:52:55.317Z,3.00
2022-07-29T13:58:17.160Z,2.97
2022-07-29T14:03:39.008Z,2.80
2022-07-29T14:09:00.839Z,2.70
2022-07-29T14:14:22.666Z,3.00
2022-07-29T14:19:44.501Z,3.35
2022-07-29T14:25:14.229Z,3.10
2022-07-29T14:30:36.633Z,3.00
2022-07-29T14:36:01.212Z,2.80
2022-07-29T14:41:23.223Z,2.95
2022-07-29T14:46:45.078Z,3.10
2022-07-29T14:52:10.435Z,3.03
2022-07-29T14:57:32.284Z,3.33
2022-07-29T15:03:02.720Z,2.97
2022-07-29T15:08:24.927Z,3.08
2022-07-29T15:13:46.785Z,3.10
2022-07-29T15:19:08.629Z,3.05
2022-07-29T15:24:30.462Z,3.00
2022-07-29T15:29:53.349Z,3.20
2022-07-29T15:35:15.184Z,3.08
2022-07-29T15:40:37.034Z,3.42
2022-07-29T15:45:58.964Z,3.53
2022-07-29T15:51:20.835Z,3.33
2022-07-29T15:56:42.666Z,4.30
2022-07-29T16:02:04.506Z,3.22
2022-07-29T16:07:31.786Z,3.33
2022-07-29T16:12:54.608Z,3.38
2022-07-29T16:18:16.434Z,3.70
2022-07-29T16:23:38.254Z,3.60
2022-07-29T16:29:00.079Z,3.83
2022-07-29T16:34:21.899Z,3.47
2022-07-29T16:39:43.726Z,3.83
2022-07-29T16:45:05.559Z,4.13
2022-07-29T16:50:27.443Z,3.42
2022-07-29T16:55:49.292Z,4.10
2022-07-29T17:01:11.193Z,3.92
2022-07-29T17:06:33.096Z,3.50
2022-07-29T17:11:55.308Z,3.90
2022-07-29T17:17:20.832Z,3.78
2022-07-29T17:22:59.020Z,3.80
2022-07-29T17:28:20.845Z,3.60
2022-07-29T17:33:42.690Z,4.03
2022-07-29T17:39:04.567Z,4.22
2022-07-29T17:44:26.488Z,4.57
2022-07-29T17:49:48.314Z,4.13
2022-07-29T17:55:10.204Z,3.63
2022-07-29T18:00:32.096Z,4.10
2022-07-29T18:05:53.951Z,3.67
2022-07-29T18:11:15.801Z,4.97
2022-07-29T18:16:37.674Z,4.20
2022-07-29T18:22:04.898Z,5.68
2022-07-29T18:27:27.313Z,4.40
2022-07-29T18:33:18.265Z,4.55
2022-07-29T18:38:31.214Z,4.07
2022-07-29T18:43:53.036Z,4.75
2022-07-29T18:49:16.499Z,4.43
2022-07-29T18:54:38.385Z,4.63
2022-07-29T19:00:00.220Z,4.90
2022-07-29T19:05:22.045Z,4.35
2022-07-29T19:10:43.875Z,4.70
2022-07-29T19:16:05.805Z,4.63
2022-07-29T19:21:27.711Z,5.57
2022-07-29T19:26:49.544Z,5.30
2022-07-29T19:32:11.387Z,4.55
2022-07-29T19:37:33.206Z,5.13
2022-07-29T19:42:55.060Z,5.40
2022-07-29T19:48:16.894Z,5.57
2022-07-29T19:53:38.726Z,5.05
2022-07-29T19:59:00.545Z,4.60
2022-07-29T20:04:23.929Z,5.57
2022-07-29T20:09:45.994Z,5.70
2022-07-29T20:15:07.827Z,4.95
2022-07-29T20:20:30.557Z,5.75
2022-07-29T20:25:52.461Z,7.10
2022-07-29T20:31:16.074Z,5.97
2022-07-29T20:36:38.025Z,6.15
2022-07-29T20:41:59.858Z,5.90
2022-07-29T20:47:21.693Z,7.13
2022-07-29T20:52:43.603Z,6.40
2022-07-29T20:58:05.450Z,6.03
2022-07-29T21:03:27.308Z,5.60
2022-07-29T21:08:49.123Z,5.80
2022-07-29T21:14:10.996Z,6.22
2022-07-29T21:19:32.857Z,5.70
2022-07-29T21:24:54.698Z,5.30
2022-07-29T21:30:16.530Z,5.95
2022-07-29T21:36:14.941Z,7.43
2022-07-29T21:41:20.204Z,6.28
2022-07-29T21:46:42.045Z,7.25
2022-07-29T21:52:03.897Z,7.38
2022-07-29T21:57:25.750Z,7.15
2022-07-29T22:02:47.562Z,7.38
2022-07-29T22:08:09.385Z,7.63
2022-07-29T22:13:31.243Z,7.47
2022-07-29T22:18:53.069Z,7.53
2022-07-29T22:24:14.913Z,7.30
2022-07-29T22:29:36.732Z,7.68
2022-07-29T22:34:58.567Z,7.13
2022-07-29T22:40:20.396Z,6.40
2022-07-29T22:45:42.278Z,6.43
2022-07-29T22:51:04.140Z,6.18
2022-07-29T22:56:25.951Z,5.93
2022-07-29T23:01:47.861Z,5.45
2022-07-29T23:07:09.717Z,5.38
2022-07-29T23:12:31.533Z,5.72
2022-07-29T23:17:53.367Z,5.47
2022-07-29T23:23:15.192Z,5.13
2022-07-29T23:28:37.010Z,4.70
2022-07-29T23:33:58.824Z,5.15
2022-07-29T23:39:20.653Z,5.20
2022-07-29T23:44:42.507Z,5.00
2022-07-29T23:50:04.343Z,3.97
2022-07-29T23:55:37.638Z,4.45
